sensor_id;sensor_type;location;lat;lon;timestamp;temperature;humidity
19088;DHT22;9676;50.916;13.352;2024-03-23T00:52:31;14.70;50.90
19088;DHT22;9676;50.916;13.352;2024-03-23T00:55:18;14.60;50.90
19088;DHT22;9676;50.916;13.352;2024-03-23T00:58:04;14.50;50.80
19088;DHT22;9676;50.916;13.352;2024-03-23T01:00:50;14.40;50.70
19088;DHT22;9676;50.916;13.352;2024-03-23T01:03:36;14.40;50.80
19088;DHT22;9676;50.916;13.352;2024-03-23T01:06:23;14.30;50.80
19088;DHT22;9676;50.916;13.352;2024-03-23T01:09:11;14.20;50.80
19088;DHT22;9676;50.916;13.352;2024-03-23T01:11:56;14.20;50.90
19088;DHT22;9676;50.916;13.352;2024-03-23T01:14:43;14.10;50.80
19088;DHT22;9676;50.916;13.352;2024-03-23T01:17:29;14.00;50.80
19088;DHT22;9676;50.916;13.352;2024-03-23T01:20:16;14.00;51.00
19088;DHT22;9676;50.916;13.352;2024-03-23T01:23:03;13.90;51.00
19088;DHT22;9676;50.916;13.352;2024-03-23T01:25:54;13.80;51.10
19088;DHT22;9676;50.916;13.352;2024-03-23T01:28:40;13.80;51.40
19088;DHT22;9676;50.916;13.352;2024-03-23T01:31:26;13.70;51.20
19088;DHT22;9676;50.916;13.352;2024-03-23T01:34:13;13.60;51.20
19088;DHT22;9676;50.916;13.352;2024-03-23T01:36:59;13.60;51.30
19088;DHT22;9676;50.916;13.352;2024-03-23T01:39:46;13.60;51.30
19088;DHT22;9676;50.916;13.352;2024-03-23T01:42:33;13.50;51.40
19088;DHT22;9676;50.916;13.352;2024-03-23T01:45:20;13.50;51.60
19088;DHT22;9676;50.916;13.352;2024-03-23T01:48:06;13.50;51.70
19088;DHT22;9676;50.916;13.352;2024-03-23T01:50:54;13.40;51.80
19088;DHT22;9676;50.916;13.352;2024-03-23T01:53:40;13.50;51.90
19088;DHT22;9676;50.916;13.352;2024-03-23T01:56:27;13.40;51.90
19088;DHT22;9676;50.916;13.352;2024-03-23T01:59:14;13.40;52.60
19088;DHT22;9676;50.916;13.352;2024-03-23T02:02:01;13.40;52.10
19088;DHT22;9676;50.916;13.352;2024-03-23T02:04:48;13.50;52.20
19088;DHT22;9676;50.916;13.352;2024-03-23T02:07:34;13.40;52.20
19088;DHT22;9676;50.916;13.352;2024-03-23T02:10:22;13.40;52.10
19088;DHT22;9676;50.916;13.352;2024-03-23T02:13:07;13.40;52.20
19088;DHT22;9676;50.916;13.352;2024-03-23T02:15:57;13.40;52.50
19088;DHT22;9676;50.916;13.352;2024-03-23T02:18:43;13.30;52.90
19088;DHT22;9676;50.916;13.352;2024-03-23T02:21:30;13.40;53.30
19088;DHT22;9676;50.916;13.352;2024-03-23T02:24:18;13.30;53.70
19088;DHT22;9676;50.916;13.352;2024-03-23T02:27:05;13.40;54.10
19088;DHT22;9676;50.916;13.352;2024-03-23T02:29:50;13.40;54.30
19088;DHT22;9676;50.916;13.352;2024-03-23T02:32:37;13.40;54.50
19088;DHT22;9676;50.916;13.352;2024-03-23T02:35:23;13.50;55.10
19088;DHT22;9676;50.916;13.352;2024-03-23T02:38:09;13.50;55.10
19088;DHT22;9676;50.916;13.352;2024-03-23T02:41:02;13.50;55.00
19088;DHT22;9676;50.916;13.352;2024-03-23T02:43:49;13.60;55.70
19088;DHT22;9676;50.916;13.352;2024-03-23T02:46:34;13.60;55.50
19088;DHT22;9676;50.916;13.352;2024-03-23T02:49:21;13.70;55.50
19088;DHT22;9676;50.916;13.352;2024-03-23T02:52:07;13.70;56.10
19088;DHT22;9676;50.916;13.352;2024-03-23T02:54:54;13.70;55.60
19088;DHT22;9676;50.916;13.352;2024-03-23T02:57:41;13.70;55.70
19088;DHT22;9676;50.916;13.352;2024-03-23T03:00:28;13.70;56.80
19088;DHT22;9676;50.916;13.352;2024-03-23T03:03:14;13.70;56.50
19088;DHT22;9676;50.916;13.352;2024-03-23T03:06:00;13.70;55.70
19088;DHT22;9676;50.916;13.352;2024-03-23T03:08:46;13.70;56.00
19088;DHT22;9676;50.916;13.352;2024-03-23T03:11:33;13.70;56.70
19088;DHT22;9676;50.916;13.352;2024-03-23T03:14:20;13.60;56.70
19088;DHT22;9676;50.916;13.352;2024-03-23T03:17:06;13.60;56.60
19088;DHT22;9676;50.916;13.352;2024-03-23T03:19:53;13.60;56.60
19088;DHT22;9676;50.916;13.352;2024-03-23T03:22:40;13.60;56.50
19088;DHT22;9676;50.916;13.352;2024-03-23T03:25:27;13.60;56.70
19088;DHT22;9676;50.916;13.352;2024-03-23T03:28:13;13.60;56.80
19088;DHT22;9676;50.916;13.352;2024-03-23T03:31:01;13.60;56.90
19088;DHT22;9676;50.916;13.352;2024-03-23T03:33:46;13.60;56.80
19088;DHT22;9676;50.916;13.352;2024-03-23T03:36:33;13.50;56.30
19088;DHT22;9676;50.916;13.352;2024-03-23T03:39:19;13.50;56.80
19088;DHT22;9676;50.916;13.352;2024-03-23T03:42:07;13.50;57.10
19088;DHT22;9676;50.916;13.352;2024-03-23T03:44:53;13.50;57.30
19088;DHT22;9676;50.916;13.352;2024-03-23T03:47:41;13.50;57.50
19088;DHT22;9676;50.916;13.352;2024-03-23T03:50:27;13.50;58.10
19088;DHT22;9676;50.916;13.352;2024-03-23T03:53:14;13.50;57.90
19088;DHT22;9676;50.916;13.352;2024-03-23T03:56:00;13.50;57.90
19088;DHT22;9676;50.916;13.352;2024-03-23T03:58:48;13.50;58.00
19088;DHT22;9676;50.916;13.352;2024-03-23T04:01:34;13.50;57.70
19088;DHT22;9676;50.916;13.352;2024-03-23T04:04:22;13.40;57.70
19088;DHT22;9676;50.916;13.352;2024-03-23T04:07:07;13.40;58.60
19088;DHT22;9676;50.916;13.352;2024-03-23T04:09:54;13.40;58.40
19088;DHT22;9676;50.916;13.352;2024-03-23T04:12:39;13.30;58.30
19088;DHT22;9676;50.916;13.352;2024-03-23T04:15:26;13.30;58.20
19088;DHT22;9676;50.916;13.352;2024-03-23T04:18:12;13.30;58.50
19088;DHT22;9676;50.916;13.352;2024-03-23T04:21:01;13.30;58.30
19088;DHT22;9676;50.916;13.352;2024-03-23T04:23:46;13.30;58.10
19088;DHT22;9676;50.916;13.352;2024-03-23T04:26:41;13.20;57.90
19088;DHT22;9676;50.916;13.352;2024-03-23T04:29:27;13.20;58.00
19088;DHT22;9676;50.916;13.352;2024-03-23T04:32:13;13.10;57.50
19088;DHT22;9676;50.916;13.352;2024-03-23T04:34:59;13.00;57.90
19088;DHT22;9676;50.916;13.352;2024-03-23T04:37:47;12.80;58.00
19088;DHT22;9676;50.916;13.352;2024-03-23T04:40:34;12.70;58.20
19088;DHT22;9676;50.916;13.352;2024-03-23T04:43:21;12.60;57.90
19088;DHT22;9676;50.916;13.352;2024-03-23T04:46:07;12.50;58.10
19088;DHT22;9676;50.916;13.352;2024-03-23T04:48:54;12.40;58.30
19088;DHT22;9676;50.916;13.352;2024-03-23T04:51:41;12.30;58.70
19088;DHT22;9676;50.916;13.352;2024-03-23T04:54:32;12.30;58.60
19088;DHT22;9676;50.916;13.352;2024-03-23T04:57:18;12.20;58.90
19088;DHT22;9676;50.916;13.352;2024-03-23T05:00:06;12.10;58.70
19088;DHT22;9676;50.916;13.352;2024-03-23T05:03:01;12.10;58.80
19088;DHT22;9676;50.916;13.352;2024-03-23T05:05:50;12.00;58.70
19088;DHT22;9676;50.916;13.352;2024-03-23T05:08:36;12.00;59.30
19088;DHT22;9676;50.916;13.352;2024-03-23T05:11:24;11.90;59.40
19088;DHT22;9676;50.916;13.352;2024-03-23T05:14:09;11.90;59.30
19088;DHT22;9676;50.916;13.352;2024-03-23T05:16:56;11.80;59.30
19088;DHT22;9676;50.916;13.352;2024-03-23T05:19:42;11.80;59.50
19088;DHT22;9676;50.916;13.352;2024-03-23T05:22:29;11.80;58.90
19088;DHT22;9676;50.916;13.352;2024-03-23T05:25:16;11.80;59.50
19088;DHT22;9676;50.916;13.352;2024-03-23T05:28:04;11.80;59.80
19088;DHT22;9676;50.916;13.352;2024-03-23T05:30:50;11.80;60.00
19088;DHT22;9676;50.916;13.352;2024-03-23T05:33:37;11.70;60.30
19088;DHT22;9676;50.916;13.352;2024-03-23T05:36:23;11.80;60.20
19088;DHT22;9676;50.916;13.352;2024-03-23T05:39:10;11.80;60.10
19088;DHT22;9676;50.916;13.352;2024-03-23T05:41:56;11.90;60.10
19088;DHT22;9676;50.916;13.352;2024-03-23T05:44:45;11.90;59.60
19088;DHT22;9676;50.916;13.352;2024-03-23T05:47:31;11.90;59.70
19088;DHT22;9676;50.916;13.352;2024-03-23T05:50:17;11.90;59.90
19088;DHT22;9676;50.916;13.352;2024-03-23T05:53:04;11.90;60.20
19088;DHT22;9676;50.916;13.352;2024-03-23T05:55:51;11.90;59.80
19088;DHT22;9676;50.916;13.352;2024-03-23T05:58:45;11.90;59.60
19088;DHT22;9676;50.916;13.352;2024-03-23T06:01:33;11.90;59.90
19088;DHT22;9676;50.916;13.352;2024-03-23T06:04:19;11.90;59.70
19088;DHT22;9676;50.916;13.352;2024-03-23T06:07:06;11.90;59.80
19088;DHT22;9676;50.916;13.352;2024-03-23T06:09:59;11.90;59.40
19088;DHT22;9676;50.916;13.352;2024-03-23T06:12:46;11.90;59.70
19088;DHT22;9676;50.916;13.352;2024-03-23T06:15:34;11.80;60.10
19088;DHT22;9676;50.916;13.352;2024-03-23T06:18:24;11.80;60.50
19088;DHT22;9676;50.916;13.352;2024-03-23T06:21:13;11.70;60.30
19088;DHT22;9676;50.916;13.352;2024-03-23T06:23:59;11.60;60.80
19088;DHT22;9676;50.916;13.352;2024-03-23T06:26:46;11.60;60.60
19088;DHT22;9676;50.916;13.352;2024-03-23T06:29:31;11.50;60.70
19088;DHT22;9676;50.916;13.352;2024-03-23T06:32:18;11.50;60.80
19088;DHT22;9676;50.916;13.352;2024-03-23T06:35:07;11.50;61.30
19088;DHT22;9676;50.916;13.352;2024-03-23T06:37:54;11.60;61.60
19088;DHT22;9676;50.916;13.352;2024-03-23T06:40:40;11.60;61.30
19088;DHT22;9676;50.916;13.352;2024-03-23T06:43:27;11.60;61.30
19088;DHT22;9676;50.916;13.352;2024-03-23T06:46:12;11.60;61.80
19088;DHT22;9676;50.916;13.352;2024-03-23T06:48:59;11.60;62.00
19088;DHT22;9676;50.916;13.352;2024-03-23T06:51:46;11.60;62.20
19088;DHT22;9676;50.916;13.352;2024-03-23T06:54:33;11.60;62.30
19088;DHT22;9676;50.916;13.352;2024-03-23T06:57:19;11.60;62.10
19088;DHT22;9676;50.916;13.352;2024-03-23T07:00:06;11.70;62.70
19088;DHT22;9676;50.916;13.352;2024-03-23T07:02:55;11.70;62.90
19088;DHT22;9676;50.916;13.352;2024-03-23T07:05:41;11.80;63.00
19088;DHT22;9676;50.916;13.352;2024-03-23T07:08:29;11.80;63.20
19088;DHT22;9676;50.916;13.352;2024-03-23T07:11:19;11.90;64.00
19088;DHT22;9676;50.916;13.352;2024-03-23T07:14:05;12.00;64.50
19088;DHT22;9676;50.916;13.352;2024-03-23T07:16:52;12.10;64.50
19088;DHT22;9676;50.916;13.352;2024-03-23T07:19:38;12.10;64.80
19088;DHT22;9676;50.916;13.352;2024-03-23T07:22:25;12.20;65.00
19088;DHT22;9676;50.916;13.352;2024-03-23T07:25:12;12.30;65.50
19088;DHT22;9676;50.916;13.352;2024-03-23T07:27:59;12.40;66.00
19088;DHT22;9676;50.916;13.352;2024-03-23T07:30:44;12.60;66.30
19088;DHT22;9676;50.916;13.352;2024-03-23T07:33:32;12.70;66.70
19088;DHT22;9676;50.916;13.352;2024-03-23T07:36:18;12.80;66.60
19088;DHT22;9676;50.916;13.352;2024-03-23T07:39:05;12.90;66.60
19088;DHT22;9676;50.916;13.352;2024-03-23T07:41:52;13.10;66.90
19088;DHT22;9676;50.916;13.352;2024-03-23T07:44:38;13.30;67.10
19088;DHT22;9676;50.916;13.352;2024-03-23T07:47:24;13.40;67.00
19088;DHT22;9676;50.916;13.352;2024-03-23T07:50:11;13.50;67.00
19088;DHT22;9676;50.916;13.352;2024-03-23T07:52:57;13.70;67.00
19088;DHT22;9676;50.916;13.352;2024-03-23T07:55:53;13.80;67.00
19088;DHT22;9676;50.916;13.352;2024-03-23T07:58:42;13.90;67.50
19088;DHT22;9676;50.916;13.352;2024-03-23T08:01:29;14.00;67.00
19088;DHT22;9676;50.916;13.352;2024-03-23T08:04:16;14.10;66.60
19088;DHT22;9676;50.916;13.352;2024-03-23T08:07:02;14.30;66.90
19088;DHT22;9676;50.916;13.352;2024-03-23T08:09:49;14.40;67.10
19088;DHT22;9676;50.916;13.352;2024-03-23T08:12:35;14.50;67.70
19088;DHT22;9676;50.916;13.352;2024-03-23T08:15:23;14.60;68.40
19088;DHT22;9676;50.916;13.352;2024-03-23T08:18:09;14.90;70.10
19088;DHT22;9676;50.916;13.352;2024-03-23T08:20:57;15.10;69.90
19088;DHT22;9676;50.916;13.352;2024-03-23T08:23:43;15.30;69.20
19088;DHT22;9676;50.916;13.352;2024-03-23T08:26:29;15.50;68.60
19088;DHT22;9676;50.916;13.352;2024-03-23T08:29:15;15.70;68.00
19088;DHT22;9676;50.916;13.352;2024-03-23T08:32:04;15.90;67.70
19088;DHT22;9676;50.916;13.352;2024-03-23T08:34:49;15.90;67.10
19088;DHT22;9676;50.916;13.352;2024-03-23T08:37:36;16.00;66.50
19088;DHT22;9676;50.916;13.352;2024-03-23T08:40:22;16.00;66.20
19088;DHT22;9676;50.916;13.352;2024-03-23T08:43:09;16.00;66.00
19088;DHT22;9676;50.916;13.352;2024-03-23T08:46:02;16.00;65.80
19088;DHT22;9676;50.916;13.352;2024-03-23T08:48:51;16.00;65.70
19088;DHT22;9676;50.916;13.352;2024-03-23T08:51:38;16.00;65.80
19088;DHT22;9676;50.916;13.352;2024-03-23T08:54:25;16.00;65.90
19088;DHT22;9676;50.916;13.352;2024-03-23T08:57:12;16.00;66.10
19088;DHT22;9676;50.916;13.352;2024-03-23T08:59:59;16.00;66.10
19088;DHT22;9676;50.916;13.352;2024-03-23T09:02:47;16.00;66.00
19088;DHT22;9676;50.916;13.352;2024-03-23T09:05:40;16.00;65.90
19088;DHT22;9676;50.916;13.352;2024-03-23T09:08:27;16.00;66.00
19088;DHT22;9676;50.916;13.352;2024-03-23T09:11:13;16.00;65.50
19088;DHT22;9676;50.916;13.352;2024-03-23T09:14:00;16.00;65.60
19088;DHT22;9676;50.916;13.352;2024-03-23T09:16:46;16.00;65.50
19088;DHT22;9676;50.916;13.352;2024-03-23T09:19:32;15.90;65.30
19088;DHT22;9676;50.916;13.352;2024-03-23T09:22:20;15.90;65.20
19088;DHT22;9676;50.916;13.352;2024-03-23T09:25:07;15.90;65.20
19088;DHT22;9676;50.916;13.352;2024-03-23T09:27:53;15.80;64.80
19088;DHT22;9676;50.916;13.352;2024-03-23T09:30:40;15.70;64.30
19088;DHT22;9676;50.916;13.352;2024-03-23T09:33:27;15.60;63.90
19088;DHT22;9676;50.916;13.352;2024-03-23T09:36:15;15.40;63.60
19088;DHT22;9676;50.916;13.352;2024-03-23T09:39:02;15.20;63.40
19088;DHT22;9676;50.916;13.352;2024-03-23T09:41:50;14.90;63.60
19088;DHT22;9676;50.916;13.352;2024-03-23T09:44:36;14.60;62.90
19088;DHT22;9676;50.916;13.352;2024-03-23T09:47:24;14.40;62.90
19088;DHT22;9676;50.916;13.352;2024-03-23T09:50:10;14.00;62.70
19088;DHT22;9676;50.916;13.352;2024-03-23T09:52:57;13.70;62.60
19088;DHT22;9676;50.916;13.352;2024-03-23T09:55:44;13.50;62.60
19088;DHT22;9676;50.916;13.352;2024-03-23T09:58:31;13.20;63.20
19088;DHT22;9676;50.916;13.352;2024-03-23T10:01:17;13.00;63.20
19088;DHT22;9676;50.916;13.352;2024-03-23T10:04:04;12.70;62.80
19088;DHT22;9676;50.916;13.352;2024-03-23T10:06:50;12.50;62.70
19088;DHT22;9676;50.916;13.352;2024-03-23T10:09:37;12.30;62.30
19088;DHT22;9676;50.916;13.352;2024-03-23T10:12:24;12.00;62.00
19088;DHT22;9676;50.916;13.352;2024-03-23T10:15:17;11.80;62.20
19088;DHT22;9676;50.916;13.352;2024-03-23T10:18:17;11.60;62.50
19088;DHT22;9676;50.916;13.352;2024-03-23T10:21:09;11.40;62.50
19088;DHT22;9676;50.916;13.352;2024-03-23T10:23:56;11.20;62.40
19088;DHT22;9676;50.916;13.352;2024-03-23T10:26:41;11.10;62.30
19088;DHT22;9676;50.916;13.352;2024-03-23T10:29:33;10.90;62.50
19088;DHT22;9676;50.916;13.352;2024-03-23T10:32:19;10.80;63.80
19088;DHT22;9676;50.916;13.352;2024-03-23T10:35:16;10.70;63.30
19088;DHT22;9676;50.916;13.352;2024-03-23T10:38:05;10.60;65.30
19088;DHT22;9676;50.916;13.352;2024-03-23T10:40:53;10.50;64.50
19088;DHT22;9676;50.916;13.352;2024-03-23T10:43:39;10.50;64.70
19088;DHT22;9676;50.916;13.352;2024-03-23T10:46:27;10.40;64.40
19088;DHT22;9676;50.916;13.352;2024-03-23T10:49:13;10.30;64.70
19088;DHT22;9676;50.916;13.352;2024-03-23T10:52:01;10.30;64.90
19088;DHT22;9676;50.916;13.352;2024-03-23T10:54:49;10.20;65.30
19088;DHT22;9676;50.916;13.352;2024-03-23T10:57:40;10.10;65.30
19088;DHT22;9676;50.916;13.352;2024-03-23T11:00:28;10.10;65.50
19088;DHT22;9676;50.916;13.352;2024-03-23T11:03:32;10.00;65.50
19088;DHT22;9676;50.916;13.352;2024-03-23T11:06:38;10.00;67.00
19088;DHT22;9676;50.916;13.352;2024-03-23T11:09:41;10.00;68.00
19088;DHT22;9676;50.916;13.352;2024-03-23T11:12:30;10.00;67.50
19088;DHT22;9676;50.916;13.352;2024-03-23T11:15:18;10.00;66.80
19088;DHT22;9676;50.916;13.352;2024-03-23T11:18:05;10.00;66.90
19088;DHT22;9676;50.916;13.352;2024-03-23T11:20:54;10.10;66.90
19088;DHT22;9676;50.916;13.352;2024-03-23T11:23:41;10.00;67.10
19088;DHT22;9676;50.916;13.352;2024-03-23T11:26:27;10.00;66.80
19088;DHT22;9676;50.916;13.352;2024-03-23T11:29:15;10.00;67.40
19088;DHT22;9676;50.916;13.352;2024-03-23T11:32:02;10.00;67.70
19088;DHT22;9676;50.916;13.352;2024-03-23T11:34:49;10.00;67.70
19088;DHT22;9676;50.916;13.352;2024-03-23T11:37:37;10.10;67.70
19088;DHT22;9676;50.916;13.352;2024-03-23T11:40:24;10.10;67.70
19088;DHT22;9676;50.916;13.352;2024-03-23T11:43:11;10.10;67.50
19088;DHT22;9676;50.916;13.352;2024-03-23T11:46:00;10.10;68.10
19088;DHT22;9676;50.916;13.352;2024-03-23T11:48:49;10.10;67.70
19088;DHT22;9676;50.916;13.352;2024-03-23T11:51:37;10.10;67.80
19088;DHT22;9676;50.916;13.352;2024-03-23T11:54:25;10.20;68.00
19088;DHT22;9676;50.916;13.352;2024-03-23T11:57:12;10.20;68.20
19088;DHT22;9676;50.916;13.352;2024-03-23T11:59:58;10.20;67.80
19088;DHT22;9676;50.916;13.352;2024-03-23T12:02:45;10.20;68.00
19088;DHT22;9676;50.916;13.352;2024-03-23T12:05:30;10.20;68.20
19088;DHT22;9676;50.916;13.352;2024-03-23T12:08:21;10.20;68.00
19088;DHT22;9676;50.916;13.352;2024-03-23T12:11:11;10.20;68.20
19088;DHT22;9676;50.916;13.352;2024-03-23T12:13:59;10.30;68.30
19088;DHT22;9676;50.916;13.352;2024-03-23T12:16:46;10.30;68.30
19088;DHT22;9676;50.916;13.352;2024-03-23T12:19:32;10.30;68.20
19088;DHT22;9676;50.916;13.352;2024-03-23T12:22:20;10.40;68.20
19088;DHT22;9676;50.916;13.352;2024-03-23T12:25:07;10.40;68.30
19088;DHT22;9676;50.916;13.352;2024-03-23T12:27:58;10.40;68.90
19088;DHT22;9676;50.916;13.352;2024-03-23T12:30:44;10.50;68.90
19088;DHT22;9676;50.916;13.352;2024-03-23T12:33:31;10.50;68.90
19088;DHT22;9676;50.916;13.352;2024-03-23T12:36:17;10.60;69.00
19088;DHT22;9676;50.916;13.352;2024-03-23T12:39:03;10.60;69.10
19088;DHT22;9676;50.916;13.352;2024-03-23T12:41:49;10.70;67.70
19088;DHT22;9676;50.916;13.352;2024-03-23T12:44:39;10.70;67.70
19088;DHT22;9676;50.916;13.352;2024-03-23T12:47:24;10.70;67.70
19088;DHT22;9676;50.916;13.352;2024-03-23T12:50:12;10.70;67.80
19088;DHT22;9676;50.916;13.352;2024-03-23T12:52:58;10.70;68.10
19088;DHT22;9676;50.916;13.352;2024-03-23T12:55:44;10.80;68.10
19088;DHT22;9676;50.916;13.352;2024-03-23T12:58:31;10.80;68.00
19088;DHT22;9676;50.916;13.352;2024-03-23T13:01:18;10.80;67.80
19088;DHT22;9676;50.916;13.352;2024-03-23T13:04:05;10.90;68.20
19088;DHT22;9676;50.916;13.352;2024-03-23T13:06:51;10.90;68.30
19088;DHT22;9676;50.916;13.352;2024-03-23T13:09:38;11.00;68.00
19088;DHT22;9676;50.916;13.352;2024-03-23T13:12:24;11.00;67.70
19088;DHT22;9676;50.916;13.352;2024-03-23T13:15:11;11.00;67.40
19088;DHT22;9676;50.916;13.352;2024-03-23T13:17:58;11.10;67.70
19088;DHT22;9676;50.916;13.352;2024-03-23T13:20:44;11.10;68.30
19088;DHT22;9676;50.916;13.352;2024-03-23T13:23:30;11.20;69.10
19088;DHT22;9676;50.916;13.352;2024-03-23T13:26:19;11.20;69.50
19088;DHT22;9676;50.916;13.352;2024-03-23T13:29:05;11.40;70.10
19088;DHT22;9676;50.916;13.352;2024-03-23T13:31:52;11.50;70.80
19088;DHT22;9676;50.916;13.352;2024-03-23T13:34:40;11.70;70.50
19088;DHT22;9676;50.916;13.352;2024-03-23T13:37:26;11.90;70.60
19088;DHT22;9676;50.916;13.352;2024-03-23T13:40:13;12.00;69.10
19088;DHT22;9676;50.916;13.352;2024-03-23T13:42:59;12.10;68.50
19088;DHT22;9676;50.916;13.352;2024-03-23T13:45:47;12.20;67.60
19088;DHT22;9676;50.916;13.352;2024-03-23T13:48:34;12.30;67.00
19088;DHT22;9676;50.916;13.352;2024-03-23T13:51:25;12.30;67.00
19088;DHT22;9676;50.916;13.352;2024-03-23T13:54:13;12.30;66.60
19088;DHT22;9676;50.916;13.352;2024-03-23T13:56:59;12.30;66.40
19088;DHT22;9676;50.916;13.352;2024-03-23T13:59:46;12.40;66.30
19088;DHT22;9676;50.916;13.352;2024-03-23T14:02:32;12.40;65.80
19088;DHT22;9676;50.916;13.352;2024-03-23T14:05:18;12.40;65.40
19088;DHT22;9676;50.916;13.352;2024-03-23T14:08:06;12.40;65.50
19088;DHT22;9676;50.916;13.352;2024-03-23T14:10:53;12.40;65.80
19088;DHT22;9676;50.916;13.352;2024-03-23T14:13:39;12.40;66.20
19088;DHT22;9676;50.916;13.352;2024-03-23T14:16:26;12.50;66.00
19088;DHT22;9676;50.916;13.352;2024-03-23T14:19:13;12.50;65.80
19088;DHT22;9676;50.916;13.352;2024-03-23T14:21:59;12.60;65.30
19088;DHT22;9676;50.916;13.352;2024-03-23T14:24:47;12.50;64.80
19088;DHT22;9676;50.916;13.352;2024-03-23T14:27:33;12.60;64.60
19088;DHT22;9676;50.916;13.352;2024-03-23T14:30:22;12.60;64.60
19088;DHT22;9676;50.916;13.352;2024-03-23T14:33:11;12.60;64.20
19088;DHT22;9676;50.916;13.352;2024-03-23T14:35:58;12.60;63.80
19088;DHT22;9676;50.916;13.352;2024-03-23T14:38:47;12.60;63.30
19088;DHT22;9676;50.916;13.352;2024-03-23T14:41:35;12.60;62.90
19088;DHT22;9676;50.916;13.352;2024-03-23T14:44:22;12.60;63.10
19088;DHT22;9676;50.916;13.352;2024-03-23T14:47:07;12.60;63.50
19088;DHT22;9676;50.916;13.352;2024-03-23T14:49:54;12.60;63.50
19088;DHT22;9676;50.916;13.352;2024-03-23T14:52:41;12.70;63.70
19088;DHT22;9676;50.916;13.352;2024-03-23T14:55:28;12.70;63.90
19088;DHT22;9676;50.916;13.352;2024-03-23T14:58:15;12.70;64.10
19088;DHT22;9676;50.916;13.352;2024-03-23T15:01:02;12.80;64.20
19088;DHT22;9676;50.916;13.352;2024-03-23T15:03:48;12.90;64.50
19088;DHT22;9676;50.916;13.352;2024-03-23T15:06:38;13.00;64.50
19088;DHT22;9676;50.916;13.352;2024-03-23T15:09:24;13.10;63.90
19088;DHT22;9676;50.916;13.352;2024-03-23T15:12:11;13.20;63.40
19088;DHT22;9676;50.916;13.352;2024-03-23T15:14:58;13.20;63.30
19088;DHT22;9676;50.916;13.352;2024-03-23T15:17:45;13.20;63.10
19088;DHT22;9676;50.916;13.352;2024-03-23T15:20:32;13.30;63.40
19088;DHT22;9676;50.916;13.352;2024-03-23T15:23:20;13.30;63.30
19088;DHT22;9676;50.916;13.352;2024-03-23T15:26:07;13.40;63.20
19088;DHT22;9676;50.916;13.352;2024-03-23T15:28:53;13.40;62.90
19088;DHT22;9676;50.916;13.352;2024-03-23T15:31:56;13.40;62.70
19088;DHT22;9676;50.916;13.352;2024-03-23T15:34:42;13.50;62.50
19088;DHT22;9676;50.916;13.352;2024-03-23T15:37:31;13.50;62.20
19088;DHT22;9676;50.916;13.352;2024-03-23T15:40:17;13.50;61.40
19088;DHT22;9676;50.916;13.352;2024-03-23T15:43:04;13.40;60.90
19088;DHT22;9676;50.916;13.352;2024-03-23T15:45:56;13.40;60.70
19088;DHT22;9676;50.916;13.352;2024-03-23T15:48:44;13.40;60.20
19088;DHT22;9676;50.916;13.352;2024-03-23T15:51:32;13.30;60.10
19088;DHT22;9676;50.916;13.352;2024-03-23T15:54:20;13.30;60.20
19088;DHT22;9676;50.916;13.352;2024-03-23T15:57:07;13.20;59.90
19088;DHT22;9676;50.916;13.352;2024-03-23T15:59:53;13.20;59.90
19088;DHT22;9676;50.916;13.352;2024-03-23T16:02:39;13.10;59.80
19088;DHT22;9676;50.916;13.352;2024-03-23T16:05:28;13.10;59.70
19088;DHT22;9676;50.916;13.352;2024-03-23T16:08:13;13.00;59.40
19088;DHT22;9676;50.916;13.352;2024-03-23T16:11:01;13.00;59.20
19088;DHT22;9676;50.916;13.352;2024-03-23T16:13:48;13.00;59.50
19088;DHT22;9676;50.916;13.352;2024-03-23T16:16:35;12.90;58.90
19088;DHT22;9676;50.916;13.352;2024-03-23T16:19:21;12.80;58.80
19088;DHT22;9676;50.916;13.352;2024-03-23T16:22:09;12.80;58.70
19088;DHT22;9676;50.916;13.352;2024-03-23T16:24:55;12.70;58.50
19088;DHT22;9676;50.916;13.352;2024-03-23T16:27:41;12.50;58.40
19088;DHT22;9676;50.916;13.352;2024-03-23T16:30:27;12.40;58.30
19088;DHT22;9676;50.916;13.352;2024-03-23T16:33:14;12.30;58.20
19088;DHT22;9676;50.916;13.352;2024-03-23T16:36:02;12.20;58.20
19088;DHT22;9676;50.916;13.352;2024-03-23T16:38:51;12.00;58.00
19088;DHT22;9676;50.916;13.352;2024-03-23T16:41:38;11.90;58.00
19088;DHT22;9676;50.916;13.352;2024-03-23T16:44:23;11.80;58.00
19088;DHT22;9676;50.916;13.352;2024-03-23T16:47:10;11.70;58.00
19088;DHT22;9676;50.916;13.352;2024-03-23T16:49:56;11.50;57.90
19088;DHT22;9676;50.916;13.352;2024-03-23T16:52:44;11.40;57.90
19088;DHT22;9676;50.916;13.352;2024-03-23T16:55:31;11.30;58.00
19088;DHT22;9676;50.916;13.352;2024-03-23T16:58:17;11.20;58.10
19088;DHT22;9676;50.916;13.352;2024-03-23T17:01:04;11.00;58.10
19088;DHT22;9676;50.916;13.352;2024-03-23T17:03:53;10.90;58.40
19088;DHT22;9676;50.916;13.352;2024-03-23T17:06:38;10.80;58.70
19088;DHT22;9676;50.916;13.352;2024-03-23T17:09:25;10.80;59.10
19088;DHT22;9676;50.916;13.352;2024-03-23T17:12:12;10.70;59.00
19088;DHT22;9676;50.916;13.352;2024-03-23T17:15:03;10.70;59.40
19088;DHT22;9676;50.916;13.352;2024-03-23T17:17:51;10.60;59.20
19088;DHT22;9676;50.916;13.352;2024-03-23T17:20:38;10.60;59.00
19088;DHT22;9676;50.916;13.352;2024-03-23T17:23:24;10.50;58.70
19088;DHT22;9676;50.916;13.352;2024-03-23T17:26:12;10.50;58.60
19088;DHT22;9676;50.916;13.352;2024-03-23T17:28:59;10.40;58.10
19088;DHT22;9676;50.916;13.352;2024-03-23T17:31:46;10.30;58.00
19088;DHT22;9676;50.916;13.352;2024-03-23T17:34:32;10.20;57.70
19088;DHT22;9676;50.916;13.352;2024-03-23T17:37:18;10.10;57.70
19088;DHT22;9676;50.916;13.352;2024-03-23T17:40:05;9.90;58.50
19088;DHT22;9676;50.916;13.352;2024-03-23T17:42:53;9.80;58.50
19088;DHT22;9676;50.916;13.352;2024-03-23T17:45:41;9.70;58.60
19088;DHT22;9676;50.916;13.352;2024-03-23T17:48:27;9.60;58.60
19088;DHT22;9676;50.916;13.352;2024-03-23T17:51:13;9.50;58.50
19088;DHT22;9676;50.916;13.352;2024-03-23T17:54:01;9.40;58.60
19088;DHT22;9676;50.916;13.352;2024-03-23T17:56:47;9.30;58.60
19088;DHT22;9676;50.916;13.352;2024-03-23T17:59:33;9.20;58.60
19088;DHT22;9676;50.916;13.352;2024-03-23T18:02:21;9.10;58.70
19088;DHT22;9676;50.916;13.352;2024-03-23T18:05:08;9.00;58.90
19088;DHT22;9676;50.916;13.352;2024-03-23T18:07:53;8.90;58.80
19088;DHT22;9676;50.916;13.352;2024-03-23T18:10:40;8.90;59.00
19088;DHT22;9676;50.916;13.352;2024-03-23T18:13:25;8.80;59.20
19088;DHT22;9676;50.916;13.352;2024-03-23T18:16:12;8.80;59.40
19088;DHT22;9676;50.916;13.352;2024-03-23T18:18:59;8.70;59.50
19088;DHT22;9676;50.916;13.352;2024-03-23T18:21:45;8.70;59.80
19088;DHT22;9676;50.916;13.352;2024-03-23T18:24:31;8.70;59.70
19088;DHT22;9676;50.916;13.352;2024-03-23T18:27:18;8.70;59.80
19088;DHT22;9676;50.916;13.352;2024-03-23T18:30:04;8.70;60.40